Croton, Michigan
Current Conditions -  °F | °C
As of 7:53 PM on Monday 26 Jan 2015 (Local Time) from KFFX Reporting Station
Overcast Overcast  
Wind Chill: 14°   Ceiling: 6000
Heat Index: 21°   Visibility: 10mi
Dew Point:   Wind: 5mph
Humidity: 47%   Direction: 90°E
Pressure: 29.95"   Gusts: NA
Location:  43.4316°N, 85.6502°W
Report Text: KFFX 270053Z AUTO 09004KT 10SM OVC060 M06/M16 A2995 RMK AO2 T10621158
Loading
Personal Weather Stations






























Interactive Weather Map New forecast layout! Learn more

10-Day Weather Forecast

Advertisements
Track Severe Weather on mobile